createdAt,value
2022-09-15T00:01:35.465Z,95538.59
2022-09-15T00:04:04.355Z,95559.72
2022-09-15T00:06:32.977Z,95547.78
2022-09-15T00:09:01.282Z,95507.22
2022-09-15T00:11:32.232Z,95479.94
2022-09-15T00:14:05.718Z,95515.00
2022-09-15T00:16:34.591Z,95487.28
2022-09-15T00:19:03.791Z,95506.69
2022-09-15T00:21:36.083Z,95527.13
2022-09-15T00:24:05.071Z,95535.91
2022-09-15T00:26:33.572Z,95546.16
2022-09-15T00:29:05.327Z,95527.13
2022-09-15T00:31:34.000Z,95496.34
2022-09-15T00:34:04.051Z,95503.22
2022-09-15T00:36:33.483Z,95526.66
2022-09-15T00:39:01.993Z,95487.50
2022-09-15T00:41:30.841Z,95505.28
2022-09-15T00:44:03.165Z,95541.69
2022-09-15T00:46:34.176Z,95550.00
2022-09-15T00:49:07.100Z,95496.88
2022-09-15T00:51:42.279Z,95522.22
2022-09-15T00:54:18.631Z,95538.25
2022-09-15T00:56:50.746Z,95498.50
2022-09-15T00:59:29.292Z,95500.81
2022-09-15T01:02:04.473Z,95524.72
2022-09-15T01:04:32.858Z,95486.97
2022-09-15T01:07:06.368Z,95495.97
2022-09-15T01:09:39.652Z,95464.09
2022-09-15T01:12:08.554Z,95496.47
2022-09-15T01:14:38.324Z,95487.31
2022-09-15T01:17:17.257Z,95509.97
2022-09-15T01:20:37.004Z,95527.66
2022-09-15T01:23:34.768Z,95522.69
2022-09-15T01:26:28.538Z,95496.31
2022-09-15T01:29:56.209Z,95523.69
2022-09-15T01:32:47.869Z,95523.78
2022-09-15T01:35:28.031Z,95546.78
2022-09-15T01:38:02.509Z,95511.91
2022-09-15T01:40:36.824Z,95532.44
2022-09-15T01:43:07.775Z,95503.34
2022-09-15T01:45:40.639Z,95507.94
2022-09-15T01:48:10.974Z,95464.31
2022-09-15T01:50:45.389Z,95495.88
2022-09-15T01:53:18.180Z,95387.38
2022-09-15T01:55:53.950Z,95461.31
2022-09-15T01:58:22.589Z,95474.81
2022-09-15T02:01:00.173Z,95297.56
2022-09-15T02:03:35.149Z,95484.88
2022-09-15T02:06:10.044Z,95489.81
2022-09-15T02:08:45.147Z,95474.81
2022-09-15T02:11:17.329Z,95480.94
2022-09-15T02:13:55.367Z,95463.50
2022-09-15T02:16:29.205Z,95454.47
2022-09-15T02:19:18.690Z,95506.47
2022-09-15T02:21:56.175Z,95451.13
2022-09-15T02:24:32.537Z,95450.53
2022-09-15T02:27:02.782Z,95463.38
2022-09-15T02:29:34.646Z,95504.25
2022-09-15T02:32:07.419Z,95374.19
2022-09-15T02:34:41.186Z,95427.34
2022-09-15T02:37:10.996Z,95473.53
2022-09-15T02:39:46.421Z,95401.59
2022-09-15T02:42:24.562Z,95461.75
2022-09-15T02:44:53.459Z,95467.66
2022-09-15T02:47:23.962Z,95492.13
2022-09-15T02:49:52.170Z,95443.38
2022-09-15T02:52:20.728Z,95467.16
2022-09-15T02:54:50.363Z,95437.84
2022-09-15T02:57:18.574Z,95445.81
2022-09-15T03:00:06.460Z,95451.94
2022-09-15T03:02:36.093Z,95508.31
2022-09-15T03:05:04.414Z,95465.91
2022-09-15T03:07:32.997Z,95452.13
2022-09-15T03:10:01.221Z,95459.69
2022-09-15T03:12:29.398Z,95457.94
2022-09-15T03:14:57.608Z,95474.91
2022-09-15T03:17:26.331Z,95466.81
2022-09-15T03:19:55.861Z,95450.53
2022-09-15T03:22:28.933Z,95426.31
2022-09-15T03:24:57.124Z,95438.53
2022-09-15T03:27:25.643Z,95454.91
2022-09-15T03:29:54.317Z,95469.84
2022-09-15T03:32:22.512Z,95460.03
2022-09-15T03:34:52.416Z,95446.41
2022-09-15T03:37:23.693Z,95453.09
2022-09-15T03:39:51.920Z,95453.34
2022-09-15T03:42:20.327Z,95495.06
2022-09-15T03:44:48.518Z,95471.13
2022-09-15T03:47:16.820Z,95473.72
2022-09-15T03:49:45.003Z,95413.50
2022-09-15T03:52:13.220Z,95456.09
2022-09-15T03:54:42.760Z,95489.75
2022-09-15T03:57:11.302Z,95445.63
2022-09-15T03:59:39.543Z,95453.66
2022-09-15T04:02:07.749Z,95448.69
2022-09-15T04:04:55.663Z,95415.09
2022-09-15T04:07:28.914Z,95416.72
2022-09-15T04:09:58.462Z,95449.50
2022-09-15T04:12:26.605Z,95429.53
2022-09-15T04:14:55.304Z,95442.03
2022-09-15T04:17:23.443Z,95445.56
2022-09-15T04:19:51.746Z,95433.69
2022-09-15T04:22:20.321Z,95447.06
2022-09-15T04:24:48.992Z,95465.09
2022-09-15T04:27:18.963Z,95455.13
2022-09-15T04:29:47.125Z,95403.22
2022-09-15T04:32:15.247Z,95456.66
2022-09-15T04:34:43.439Z,95411.06
2022-09-15T04:37:11.719Z,95414.41
2022-09-15T04:39:40.037Z,95436.53
2022-09-15T04:42:08.353Z,95470.75
2022-09-15T04:44:37.965Z,95455.19
2022-09-15T04:47:07.195Z,95445.63
2022-09-15T04:49:35.726Z,95485.97
2022-09-15T04:52:08.974Z,95348.94
2022-09-15T04:54:38.050Z,95423.75
2022-09-15T04:57:06.861Z,95254.56
2022-09-15T04:59:35.231Z,95414.38
2022-09-15T05:02:04.979Z,95434.59
2022-09-15T05:04:33.529Z,95457.25
2022-09-15T05:07:01.705Z,95439.78
2022-09-15T05:09:31.036Z,95412.56
2022-09-15T05:11:59.406Z,95389.13
2022-09-15T05:14:27.575Z,95461.75
2022-09-15T05:16:55.765Z,95422.34
2022-09-15T05:19:25.376Z,95469.00
2022-09-15T05:21:53.570Z,95452.63
2022-09-15T05:24:21.895Z,95483.78
2022-09-15T05:26:50.122Z,95479.19
2022-09-15T05:29:18.314Z,95388.84
2022-09-15T05:31:46.572Z,95425.00
2022-09-15T05:34:15.461Z,95442.22
2022-09-15T05:36:45.012Z,95512.09
2022-09-15T05:39:13.210Z,95491.56
2022-09-15T05:41:41.382Z,95481.47
2022-09-15T05:44:12.171Z,95470.25
2022-09-15T05:46:40.638Z,95438.97
2022-09-15T05:49:09.048Z,95454.47
2022-09-15T05:51:37.854Z,95443.47
2022-09-15T05:54:07.634Z,95481.13
2022-09-15T05:56:35.851Z,95452.94
2022-09-15T05:59:04.109Z,95462.56
2022-09-15T06:01:32.651Z,95460.59
2022-09-15T06:04:01.055Z,95467.50
2022-09-15T06:06:29.249Z,95485.31
2022-09-15T06:09:00.437Z,95479.41
2022-09-15T06:11:33.684Z,95455.81
2022-09-15T06:14:03.091Z,95486.69
2022-09-15T06:16:35.047Z,95483.59
2022-09-15T06:19:03.915Z,95481.59
2022-09-15T06:21:34.196Z,95477.44
2022-09-15T06:24:06.949Z,95373.41
2022-09-15T06:26:36.609Z,95460.59
2022-09-15T06:29:06.363Z,95462.53
2022-09-15T06:31:35.647Z,95527.38
2022-09-15T06:34:05.394Z,95515.81
2022-09-15T06:36:34.093Z,95471.56
2022-09-15T06:39:02.841Z,95501.59
2022-09-15T06:41:52.599Z,95521.16
2022-09-15T06:44:21.723Z,95465.44
2022-09-15T06:46:50.369Z,95541.69
2022-09-15T06:49:19.154Z,95531.25
2022-09-15T06:51:47.351Z,95499.78
2022-09-15T06:54:16.780Z,95496.06
2022-09-15T06:56:45.730Z,95477.47
2022-09-15T06:59:14.469Z,95497.31
2022-09-15T07:01:44.198Z,95458.06
2022-09-15T07:04:12.922Z,95480.25
2022-09-15T07:06:41.324Z,95203.72
2022-09-15T07:09:09.523Z,95494.06
2022-09-15T07:11:37.773Z,95506.09
2022-09-15T07:14:06.433Z,95523.88
2022-09-15T07:16:35.051Z,95543.50
2022-09-15T07:19:05.987Z,95512.84
2022-09-15T07:21:34.970Z,95549.50
2022-09-15T07:24:07.183Z,95538.72
2022-09-15T07:26:36.162Z,95512.13
2022-09-15T07:29:07.436Z,95471.09
2022-09-15T07:31:39.297Z,95561.22
2022-09-15T07:34:09.034Z,95559.16
2022-09-15T07:36:37.993Z,95546.19
2022-09-15T07:39:06.916Z,95535.03
2022-09-15T07:41:35.214Z,95531.16
2022-09-15T07:44:03.953Z,95573.56
2022-09-15T07:46:33.885Z,95542.22
2022-09-15T07:49:03.196Z,95547.38
2022-09-15T07:51:33.125Z,95575.66
2022-09-15T07:54:01.723Z,95583.03
2022-09-15T07:56:30.179Z,95555.34
2022-09-15T07:58:59.116Z,95589.69
2022-09-15T08:01:27.495Z,95563.97
2022-09-15T08:03:56.055Z,95603.69
2022-09-15T08:06:26.571Z,95563.16
2022-09-15T08:09:00.471Z,95576.69
2022-09-15T08:11:29.599Z,95530.31
2022-09-15T08:14:01.149Z,95592.59
2022-09-15T08:16:29.627Z,95489.00
2022-09-15T08:18:57.910Z,95560.50
2022-09-15T08:21:27.559Z,95591.59
2022-09-15T08:23:59.808Z,95589.63
2022-09-15T08:26:29.784Z,95596.47
2022-09-15T08:28:58.868Z,95610.03
2022-09-15T08:31:27.546Z,95609.28
2022-09-15T08:33:57.060Z,95595.44
2022-09-15T08:36:27.619Z,95532.78
2022-09-15T08:38:57.622Z,95619.22
2022-09-15T08:41:31.035Z,95651.47
2022-09-15T08:44:04.586Z,95609.00
2022-09-15T08:46:40.076Z,95657.50
2022-09-15T08:49:20.712Z,95650.50
2022-09-15T08:52:05.301Z,95656.84
2022-09-15T08:54:35.331Z,95624.31
2022-09-15T08:57:07.082Z,95726.75
2022-09-15T08:59:37.118Z,95613.81
2022-09-15T09:02:47.051Z,95749.22
2022-09-15T09:05:36.885Z,95555.94
2022-09-15T09:08:43.187Z,95609.28
2022-09-15T09:11:20.516Z,95619.13
2022-09-15T09:14:00.557Z,95613.88
2022-09-15T09:16:54.558Z,95657.47
2022-09-15T09:19:47.649Z,95624.09
2022-09-15T09:22:19.597Z,95624.03
2022-09-15T09:24:50.518Z,95580.88
2022-09-15T09:27:25.233Z,95564.75
2022-09-15T09:30:00.659Z,95645.88
2022-09-15T09:32:41.429Z,95674.22
2022-09-15T09:35:21.746Z,95688.78
2022-09-15T09:37:52.932Z,95602.81
2022-09-15T09:40:21.893Z,95633.38
2022-09-15T09:42:51.495Z,95663.25
2022-09-15T09:45:20.934Z,95652.50
2022-09-15T09:47:49.176Z,95649.41
2022-09-15T09:50:36.447Z,95658.81
2022-09-15T09:53:25.025Z,95670.88
2022-09-15T09:55:55.078Z,95635.72
2022-09-15T09:58:26.320Z,95629.44
2022-09-15T10:00:54.569Z,95604.22
2022-09-15T10:03:27.115Z,95697.94
2022-09-15T10:06:06.041Z,95596.84
2022-09-15T10:08:34.915Z,95647.09
2022-09-15T10:11:07.106Z,95638.16
2022-09-15T10:13:50.535Z,95623.13
2022-09-15T10:16:21.012Z,95616.81
2022-09-15T10:18:54.298Z,95657.50
2022-09-15T10:21:26.099Z,95607.22
2022-09-15T10:23:54.452Z,95569.75
2022-09-15T10:26:33.181Z,95646.16
2022-09-15T10:29:16.247Z,95651.25
2022-09-15T10:31:45.646Z,95580.78
2022-09-15T10:34:30.478Z,95650.28
2022-09-15T10:37:10.093Z,95648.97
2022-09-15T10:39:53.408Z,95663.81
2022-09-15T10:42:35.776Z,95618.22
2022-09-15T10:45:19.512Z,95676.75
2022-09-15T10:48:07.096Z,95640.06
2022-09-15T10:50:50.337Z,95658.19
2022-09-15T10:53:26.474Z,95681.44
2022-09-15T10:56:05.774Z,95657.63
2022-09-15T10:58:49.461Z,95664.75
2022-09-15T11:01:38.648Z,95690.88
2022-09-15T11:04:32.074Z,95657.00
2022-09-15T11:07:09.206Z,95648.91
2022-09-15T11:09:45.316Z,95665.56
2022-09-15T11:12:32.675Z,95680.63
2022-09-15T11:15:29.189Z,95658.78
2022-09-15T11:18:27.483Z,95683.34
2022-09-15T11:21:15.421Z,95680.53
2022-09-15T11:23:51.700Z,95670.38
2022-09-15T11:26:25.835Z,95805.97
2022-09-15T11:28:58.926Z,95683.63
2022-09-15T11:31:31.140Z,95679.44
2022-09-15T11:34:07.732Z,95726.63
2022-09-15T11:36:44.447Z,95659.88
2022-09-15T11:39:21.356Z,95723.13
2022-09-15T11:41:56.503Z,95651.22
2022-09-15T11:44:30.526Z,95725.78
2022-09-15T11:47:09.846Z,95746.13
2022-09-15T11:49:45.865Z,95705.44
2022-09-15T11:52:36.905Z,95751.75
2022-09-15T11:55:17.625Z,95729.16
2022-09-15T11:57:54.648Z,95741.34
2022-09-15T12:00:23.497Z,95740.16
2022-09-15T12:03:04.416Z,95773.91
2022-09-15T12:05:41.953Z,95596.97
2022-09-15T12:08:20.186Z,95733.22
2022-09-15T12:10:52.698Z,95745.63
2022-09-15T12:13:24.017Z,95710.78
2022-09-15T12:15:53.565Z,95703.81
2022-09-15T12:18:38.961Z,95732.09
2022-09-15T12:21:16.863Z,95750.63
2022-09-15T12:23:55.260Z,95708.75
2022-09-15T12:26:26.709Z,95712.81
2022-09-15T12:29:02.255Z,95683.78
2022-09-15T12:31:41.136Z,95683.59
2022-09-15T12:34:36.209Z,95636.97
2022-09-15T12:37:15.212Z,95733.66
2022-09-15T12:39:44.948Z,95734.03
2022-09-15T12:42:21.509Z,95766.31
2022-09-15T12:44:54.570Z,95725.47
2022-09-15T12:47:35.805Z,95645.56
2022-09-15T12:50:21.512Z,95726.44
2022-09-15T12:52:54.519Z,95701.97
2022-09-15T12:55:26.760Z,95778.63
2022-09-15T12:57:58.176Z,95823.91
2022-09-15T13:01:14.304Z,95760.72
2022-09-15T13:04:29.523Z,95738.19
2022-09-15T13:07:38.558Z,95741.34
2022-09-15T13:10:39.422Z,95755.16
2022-09-15T13:13:32.655Z,95758.06
2022-09-15T13:16:03.605Z,95731.16
2022-09-15T13:18:33.404Z,95757.09
2022-09-15T13:21:08.643Z,95732.53
2022-09-15T13:23:42.415Z,95699.81
2022-09-15T13:26:17.766Z,95746.09
2022-09-15T13:28:50.465Z,95762.59
2022-09-15T13:31:47.046Z,95745.53
2022-09-15T13:35:07.956Z,95793.88
2022-09-15T13:38:20.208Z,95724.38
2022-09-15T13:41:34.085Z,95764.66
2022-09-15T13:45:00.879Z,95751.94
2022-09-15T13:47:47.306Z,95708.75
2022-09-15T13:50:22.639Z,95764.16
2022-09-15T13:53:20.491Z,95720.13
2022-09-15T13:55:48.911Z,95694.13
2022-09-15T14:01:12.463Z,95739.75
2022-09-15T14:04:13.270Z,95776.00
2022-09-15T14:06:45.197Z,95735.75
2022-09-15T14:09:17.965Z,95769.97
2022-09-15T14:11:49.914Z,95809.50
2022-09-15T14:14:37.990Z,95717.47
2022-09-15T14:17:06.619Z,95789.97
2022-09-15T14:19:37.331Z,95774.84
2022-09-15T14:22:27.127Z,95780.19
2022-09-15T14:24:57.219Z,95763.91
2022-09-15T14:27:28.754Z,95777.34
2022-09-15T14:30:02.765Z,95759.75
2022-09-15T14:32:35.437Z,95763.47
2022-09-15T14:35:09.143Z,95786.44
2022-09-15T14:37:37.316Z,95745.53
2022-09-15T14:40:23.502Z,95732.34
2022-09-15T14:42:51.916Z,95726.22
2022-09-15T14:48:17.697Z,95828.63
2022-09-15T14:50:48.241Z,95789.09
2022-09-15T14:53:20.523Z,95790.41
2022-09-15T14:55:53.948Z,95849.19
2022-09-15T14:58:26.967Z,95797.84
2022-09-15T15:01:04.197Z,95774.44
2022-09-15T15:03:39.159Z,95784.78
2022-09-15T15:06:30.074Z,95769.91
2022-09-15T15:09:03.996Z,95746.94
2022-09-15T15:11:34.213Z,95778.88
2022-09-15T15:14:07.517Z,95746.44
2022-09-15T15:16:37.417Z,95783.88
2022-09-15T15:19:05.658Z,95822.38
2022-09-15T15:21:39.697Z,95781.03
2022-09-15T15:24:21.612Z,95766.66
2022-09-15T15:26:51.394Z,95792.06
2022-09-15T15:29:42.562Z,95788.69
2022-09-15T15:32:17.429Z,95841.31
2022-09-15T15:34:54.130Z,95731.78
2022-09-15T15:37:31.336Z,95777.47
2022-09-15T15:40:05.132Z,95794.22
2022-09-15T15:42:33.552Z,95780.00
2022-09-15T15:45:18.676Z,95834.41
2022-09-15T15:47:48.381Z,95845.88
2022-09-15T15:50:20.888Z,95806.06
2022-09-15T15:52:50.370Z,95830.78
2022-09-15T15:55:21.282Z,95814.13
2022-09-15T15:57:52.146Z,95778.09
2022-09-15T16:00:24.446Z,95819.00
2022-09-15T16:02:54.505Z,95810.13
2022-09-15T16:05:26.824Z,95816.97
2022-09-15T16:07:57.234Z,95789.56
2022-09-15T16:10:30.025Z,95773.84
2022-09-15T16:12:58.470Z,95850.13
2022-09-15T16:15:27.580Z,95829.13
2022-09-15T16:17:57.133Z,95720.56
2022-09-15T16:20:25.583Z,95844.25
2022-09-15T16:22:53.973Z,95841.03
2022-09-15T16:25:32.745Z,95808.91
2022-09-15T16:28:01.614Z,95789.66
2022-09-15T16:30:29.812Z,95841.50
2022-09-15T16:32:59.743Z,95800.75
2022-09-15T16:35:36.744Z,95666.88
2022-09-15T16:38:04.930Z,95864.31
2022-09-15T16:40:33.579Z,95788.19
2022-09-15T16:43:02.085Z,95888.22
2022-09-15T16:45:39.773Z,95656.56
2022-09-15T16:48:10.766Z,95811.44
2022-09-15T16:50:45.885Z,95820.00
2022-09-15T16:53:22.577Z,95840.78
2022-09-15T16:55:53.309Z,95824.44
2022-09-15T16:58:22.634Z,95832.84
2022-09-15T17:00:52.834Z,95861.19
2022-09-15T17:03:25.037Z,95853.63
2022-09-15T17:05:55.053Z,95838.75
2022-09-15T17:08:27.204Z,95887.28
2022-09-15T17:10:57.681Z,95865.47
2022-09-15T17:13:30.314Z,95887.31
2022-09-15T17:16:00.007Z,95837.09
2022-09-15T17:18:30.564Z,95687.19
2022-09-15T17:20:59.389Z,95883.72
2022-09-15T17:23:31.410Z,95877.78
2022-09-15T17:26:01.741Z,95911.47
2022-09-15T17:28:32.569Z,95864.34
2022-09-15T17:31:03.062Z,95862.53
2022-09-15T17:33:34.012Z,95915.31
2022-09-15T17:36:02.736Z,95869.91
2022-09-15T17:38:31.045Z,95869.25
2022-09-15T17:40:59.642Z,95873.13
2022-09-15T17:43:30.495Z,95867.47
2022-09-15T17:45:59.185Z,95900.06
2022-09-15T17:48:27.434Z,95862.72
2022-09-15T17:50:57.158Z,95876.66
2022-09-15T17:53:27.158Z,95893.16
2022-09-15T17:55:56.688Z,95884.81
2022-09-15T17:58:26.745Z,95845.03
2022-09-15T18:00:55.671Z,95891.53
2022-09-15T18:03:36.355Z,95738.53
2022-09-15T18:06:09.293Z,95852.06
2022-09-15T18:08:38.127Z,95887.09
2022-09-15T18:11:07.529Z,95896.00
2022-09-15T18:13:37.850Z,95849.13
2022-09-15T18:16:08.294Z,95889.25
2022-09-15T18:18:36.602Z,95876.25
2022-09-15T18:21:19.192Z,95885.00
2022-09-15T18:23:47.443Z,95917.38
2022-09-15T18:26:15.594Z,95855.44
2022-09-15T18:28:43.757Z,95926.56
2022-09-15T18:31:14.897Z,95904.94
2022-09-15T18:33:43.116Z,95903.13
2022-09-15T18:36:13.551Z,95926.78
2022-09-15T18:38:41.777Z,95934.28
2022-09-15T18:41:12.961Z,95927.19
2022-09-15T18:43:41.632Z,95898.03
2022-09-15T18:46:09.873Z,95904.97
2022-09-15T18:48:38.098Z,95907.03
2022-09-15T18:51:09.248Z,95942.88
2022-09-15T18:53:39.224Z,95906.00
2022-09-15T18:56:11.611Z,95906.81
2022-09-15T18:58:39.854Z,95925.78
2022-09-15T19:01:08.277Z,95909.06
2022-09-15T19:03:37.730Z,95937.38
2022-09-15T19:06:06.923Z,95897.66
2022-09-15T19:08:36.492Z,95824.34
2022-09-15T19:11:06.356Z,95925.59
2022-09-15T19:13:35.635Z,95899.31
2022-09-15T19:16:05.967Z,95966.31
2022-09-15T19:18:34.763Z,95883.00
2022-09-15T19:21:08.052Z,95915.59
2022-09-15T19:23:36.744Z,95917.63
2022-09-15T19:26:09.952Z,95944.06
2022-09-15T19:28:38.855Z,95937.50
2022-09-15T19:31:09.772Z,95939.16
2022-09-15T19:33:38.580Z,95967.22
2022-09-15T19:36:27.435Z,95902.25
2022-09-15T19:38:56.970Z,95957.19
2022-09-15T19:41:26.789Z,95944.34
2022-09-15T19:43:55.070Z,95899.97
2022-09-15T19:46:26.504Z,95926.03
2022-09-15T19:48:55.460Z,95937.59
2022-09-15T19:51:23.981Z,95926.41
2022-09-15T19:53:55.907Z,95935.53
2022-09-15T19:56:27.110Z,95921.47
2022-09-15T19:58:57.890Z,95835.03
2022-09-15T20:01:53.422Z,95938.09
2022-09-15T20:04:21.774Z,95728.66
2022-09-15T20:06:49.936Z,96007.66
2022-09-15T20:09:18.107Z,95882.00
2022-09-15T20:11:47.789Z,95938.50
2022-09-15T20:14:16.317Z,95980.53
2022-09-15T20:16:44.558Z,95948.97
2022-09-15T20:19:13.014Z,96054.22
2022-09-15T20:21:51.056Z,95918.06
2022-09-15T20:24:21.381Z,95938.78
2022-09-15T20:26:51.427Z,95955.38
2022-09-15T20:29:20.877Z,95973.81
2022-09-15T20:31:49.599Z,96007.38
2022-09-15T20:34:18.670Z,95795.38
2022-09-15T20:36:46.914Z,95985.00
2022-09-15T20:39:18.721Z,95993.25
2022-09-15T20:41:46.872Z,95983.91
2022-09-15T20:44:16.782Z,95980.13
2022-09-15T20:46:45.126Z,95941.03
2022-09-15T20:49:13.517Z,96072.28
2022-09-15T20:51:42.247Z,95975.88
2022-09-15T20:54:11.837Z,95959.03
2022-09-15T20:56:40.084Z,95963.19
2022-09-15T20:59:10.528Z,95963.06
2022-09-15T21:01:41.124Z,96007.88
2022-09-15T21:04:11.293Z,95963.78
2022-09-15T21:06:40.177Z,95987.75
2022-09-15T21:09:09.240Z,95975.63
2022-09-15T21:11:39.052Z,95950.28
2022-09-15T21:14:07.537Z,95939.44
2022-09-15T21:16:35.790Z,95986.06
2022-09-15T21:19:05.557Z,95967.59
2022-09-15T21:21:34.740Z,95960.56
2022-09-15T21:24:06.187Z,95936.88
2022-09-15T21:26:57.148Z,95965.47
2022-09-15T21:29:26.413Z,95927.03
2022-09-15T21:31:56.194Z,95956.03
2022-09-15T21:34:26.310Z,95971.25
2022-09-15T21:36:54.464Z,95933.00
2022-09-15T21:39:22.645Z,95986.38
2022-09-15T21:41:51.144Z,95987.44
2022-09-15T21:44:19.310Z,95939.59
2022-09-15T21:46:47.800Z,95989.44
2022-09-15T21:49:18.046Z,95970.22
2022-09-15T21:51:47.602Z,96007.66
2022-09-15T21:54:15.807Z,95970.72
2022-09-15T21:56:44.054Z,95991.81
2022-09-15T21:59:12.488Z,96014.75
2022-09-15T22:01:41.557Z,95970.09
2022-09-15T22:04:11.918Z,95991.19
2022-09-15T22:06:43.201Z,95957.28
2022-09-15T22:09:16.354Z,96029.47
2022-09-15T22:11:45.147Z,95988.69
2022-09-15T22:14:14.268Z,95988.63
2022-09-15T22:16:43.631Z,96027.34
2022-09-15T22:19:13.419Z,95932.19
2022-09-15T22:21:42.826Z,95989.81
2022-09-15T22:24:14.310Z,95913.19
2022-09-15T22:26:43.859Z,95991.72
2022-09-15T22:29:12.517Z,95917.06
2022-09-15T22:31:41.946Z,95986.81
2022-09-15T22:34:10.275Z,95947.19
2022-09-15T22:36:38.745Z,95980.91
2022-09-15T22:39:07.162Z,96005.41
2022-09-15T22:41:39.319Z,96015.50
2022-09-15T22:44:08.618Z,95989.91
2022-09-15T22:46:36.887Z,95972.31
2022-09-15T22:49:05.070Z,96000.13
2022-09-15T22:51:33.203Z,95998.75
2022-09-15T22:54:03.034Z,95956.38
2022-09-15T22:56:31.300Z,96002.38
2022-09-15T22:59:01.031Z,95932.19
2022-09-15T23:01:31.092Z,95970.78
2022-09-15T23:04:01.662Z,95962.69
2022-09-15T23:06:33.369Z,96002.63
2022-09-15T23:09:05.195Z,95988.41
2022-09-15T23:11:33.691Z,95975.03
2022-09-15T23:14:04.009Z,95974.69
2022-09-15T23:16:32.683Z,95964.06
2022-09-15T23:19:02.496Z,95972.22
2022-09-15T23:21:30.717Z,96008.13
2022-09-15T23:23:59.231Z,96018.88
2022-09-15T23:26:28.210Z,95950.31
2022-09-15T23:28:56.472Z,95940.34
2022-09-15T23:31:26.115Z,96003.75
2022-09-15T23:33:54.302Z,95972.72
2022-09-15T23:36:22.510Z,95983.88
2022-09-15T23:38:51.450Z,95966.56
2022-09-15T23:41:21.553Z,95983.06
2022-09-15T23:43:49.718Z,95935.91
2022-09-15T23:46:17.982Z,95986.25
2022-09-15T23:48:47.625Z,96015.16
2022-09-15T23:51:15.789Z,95955.50
2022-09-15T23:53:44.046Z,95986.34
2022-09-15T23:56:12.366Z,95988.56
2022-09-15T23:58:40.582Z,95984.03
